sensor_id;sensor_type;location;lat;lon;timestamp;pressure;altitude;pressure_sealevel;temperature;humidity
41044;BME280;51680;49.806;18.774;2022-07-29T00:02:45;97644.47;;;21.75;62.67
41044;BME280;51680;49.806;18.774;2022-07-29T00:05:47;97652.78;;;21.80;62.52
41044;BME280;51680;49.806;18.774;2022-07-29T00:08:49;97642.16;;;21.80;62.50
41044;BME280;51680;49.806;18.774;2022-07-29T00:11:51;97641.31;;;21.79;62.64
41044;BME280;51680;49.806;18.774;2022-07-29T00:14:55;97644.31;;;21.76;62.70
41044;BME280;51680;49.806;18.774;2022-07-29T00:17:57;97643.38;;;21.68;62.84
41044;BME280;51680;49.806;18.774;2022-07-29T00:20:59;97634.06;;;21.56;63.03
41044;BME280;51680;49.806;18.774;2022-07-29T00:24:00;97643.97;;;21.46;63.39
41044;BME280;51680;49.806;18.774;2022-07-29T00:27:02;97642.56;;;21.34;63.67
41044;BME280;51680;49.806;18.774;2022-07-29T00:30:07;97639.72;;;21.27;63.84
41044;BME280;51680;49.806;18.774;2022-07-29T00:33:09;97632.75;;;21.26;64.06
41044;BME280;51680;49.806;18.774;2022-07-29T00:36:11;97637.69;;;21.21;64.10
41044;BME280;51680;49.806;18.774;2022-07-29T00:39:12;97635.88;;;21.22;64.09
41044;BME280;51680;49.806;18.774;2022-07-29T00:42:14;97630.22;;;21.25;63.92
41044;BME280;51680;49.806;18.774;2022-07-29T00:45:18;97629.09;;;21.27;64.00
41044;BME280;51680;49.806;18.774;2022-07-29T00:48:20;97628.56;;;21.24;64.08
41044;BME280;51680;49.806;18.774;2022-07-29T00:51:21;97629.00;;;21.11;64.62
41044;BME280;51680;49.806;18.774;2022-07-29T00:54:23;97622.47;;;20.98;65.00
41044;BME280;51680;49.806;18.774;2022-07-29T00:57:25;97630.13;;;20.83;65.36
41044;BME280;51680;49.806;18.774;2022-07-29T01:00:28;97628.56;;;20.73;65.96
41044;BME280;51680;49.806;18.774;2022-07-29T01:03:30;97634.06;;;20.54;66.61
41044;BME280;51680;49.806;18.774;2022-07-29T01:06:32;97621.63;;;20.37;67.44
41044;BME280;51680;49.806;18.774;2022-07-29T01:09:35;97613.59;;;20.29;67.71
41044;BME280;51680;49.806;18.774;2022-07-29T01:12:38;97615.88;;;20.24;67.77
41044;BME280;51680;49.806;18.774;2022-07-29T01:15:44;97624.19;;;20.29;68.05
41044;BME280;51680;49.806;18.774;2022-07-29T01:18:49;97617.31;;;20.36;67.49
41044;BME280;51680;49.806;18.774;2022-07-29T01:21:57;97612.91;;;20.44;67.37
41044;BME280;51680;49.806;18.774;2022-07-29T01:25:31;97616.22;;;20.46;69.03
41044;BME280;51680;49.806;18.774;2022-07-29T01:28:59;97618.72;;;20.48;68.88
41044;BME280;51680;49.806;18.774;2022-07-29T01:32:06;97620.41;;;20.49;67.79
41044;BME280;51680;49.806;18.774;2022-07-29T01:35:17;97617.78;;;20.49;67.79
41044;BME280;51680;49.806;18.774;2022-07-29T01:38:21;97620.41;;;20.49;67.79
41044;BME280;51680;49.806;18.774;2022-07-29T01:41:31;97617.00;;;20.56;67.74
41044;BME280;51680;49.806;18.774;2022-07-29T01:44:41;97612.84;;;20.54;68.13
41044;BME280;51680;49.806;18.774;2022-07-29T01:47:49;97606.53;;;20.55;67.57
41044;BME280;51680;49.806;18.774;2022-07-29T01:50:58;97613.22;;;20.59;67.36
41044;BME280;51680;49.806;18.774;2022-07-29T01:54:06;97602.59;;;20.59;67.56
41044;BME280;51680;49.806;18.774;2022-07-29T01:57:13;97596.28;;;20.60;67.87
41044;BME280;51680;49.806;18.774;2022-07-29T02:00:17;97597.50;;;20.48;68.35
41044;BME280;51680;49.806;18.774;2022-07-29T02:03:20;97600.31;;;20.46;68.32
41044;BME280;51680;49.806;18.774;2022-07-29T02:06:24;97600.72;;;20.34;68.76
41044;BME280;51680;49.806;18.774;2022-07-29T02:09:28;97595.28;;;20.18;69.29
41044;BME280;51680;49.806;18.774;2022-07-29T02:12:31;97592.53;;;20.10;69.58
41044;BME280;51680;49.806;18.774;2022-07-29T02:15:35;97587.63;;;20.15;69.14
41044;BME280;51680;49.806;18.774;2022-07-29T02:18:39;97584.28;;;20.13;69.31
41044;BME280;51680;49.806;18.774;2022-07-29T02:21:42;97591.09;;;20.15;69.16
41044;BME280;51680;49.806;18.774;2022-07-29T02:24:46;97588.22;;;20.09;69.64
41044;BME280;51680;49.806;18.774;2022-07-29T02:27:50;97582.81;;;20.01;69.82
41044;BME280;51680;49.806;18.774;2022-07-29T02:30:55;97589.72;;;19.94;70.51
41044;BME280;51680;49.806;18.774;2022-07-29T02:34:00;97586.97;;;19.86;70.43
41044;BME280;51680;49.806;18.774;2022-07-29T02:37:03;97583.34;;;19.87;70.12
41044;BME280;51680;49.806;18.774;2022-07-29T02:40:09;97576.38;;;19.86;70.49
41044;BME280;51680;49.806;18.774;2022-07-29T02:43:12;97576.31;;;19.78;70.65
41044;BME280;51680;49.806;18.774;2022-07-29T02:46:19;97583.63;;;19.66;71.82
41044;BME280;51680;49.806;18.774;2022-07-29T02:49:32;97571.72;;;19.53;72.82
41044;BME280;51680;49.806;18.774;2022-07-29T02:52:41;97572.66;;;19.34;73.03
41044;BME280;51680;49.806;18.774;2022-07-29T02:55:45;97572.97;;;19.22;73.66
41044;BME280;51680;49.806;18.774;2022-07-29T02:58:53;97570.22;;;19.14;74.58
41044;BME280;51680;49.806;18.774;2022-07-29T03:01:58;97559.94;;;19.11;74.30
41044;BME280;51680;49.806;18.774;2022-07-29T03:05:02;97571.19;;;19.13;73.74
41044;BME280;51680;49.806;18.774;2022-07-29T03:08:06;97574.69;;;19.13;73.68
41044;BME280;51680;49.806;18.774;2022-07-29T03:11:08;97578.34;;;19.03;74.66
41044;BME280;51680;49.806;18.774;2022-07-29T03:14:11;97570.28;;;18.95;75.30
41044;BME280;51680;49.806;18.774;2022-07-29T03:17:15;97575.78;;;18.84;75.96
41044;BME280;51680;49.806;18.774;2022-07-29T03:20:18;97568.81;;;18.83;75.48
41044;BME280;51680;49.806;18.774;2022-07-29T03:23:21;97567.69;;;18.85;76.07
41044;BME280;51680;49.806;18.774;2022-07-29T03:26:24;97565.63;;;18.79;76.19
41044;BME280;51680;49.806;18.774;2022-07-29T03:29:27;97564.66;;;18.80;76.25
41044;BME280;51680;49.806;18.774;2022-07-29T03:32:30;97566.44;;;18.80;76.63
41044;BME280;51680;49.806;18.774;2022-07-29T03:35:32;97567.16;;;18.82;76.54
41044;BME280;51680;49.806;18.774;2022-07-29T03:38:36;97570.59;;;18.92;76.58
41044;BME280;51680;49.806;18.774;2022-07-29T03:41:41;97569.34;;;18.96;76.32
41044;BME280;51680;49.806;18.774;2022-07-29T03:44:45;97566.50;;;19.07;75.53
41044;BME280;51680;49.806;18.774;2022-07-29T03:47:53;97570.09;;;19.25;75.23
41044;BME280;51680;49.806;18.774;2022-07-29T03:50:56;97566.47;;;19.43;74.64
41044;BME280;51680;49.806;18.774;2022-07-29T03:53:58;97573.66;;;19.60;74.28
41044;BME280;51680;49.806;18.774;2022-07-29T03:57:01;97562.81;;;19.71;73.96
41044;BME280;51680;49.806;18.774;2022-07-29T04:00:05;97564.03;;;19.77;74.09
41044;BME280;51680;49.806;18.774;2022-07-29T04:03:08;97569.78;;;19.72;74.41
41044;BME280;51680;49.806;18.774;2022-07-29T04:06:11;97562.50;;;19.57;75.00
41044;BME280;51680;49.806;18.774;2022-07-29T04:09:13;97556.75;;;19.44;75.67
41044;BME280;51680;49.806;18.774;2022-07-29T04:12:15;97556.94;;;19.50;75.30
41044;BME280;51680;49.806;18.774;2022-07-29T04:15:17;97565.47;;;19.71;74.55
41044;BME280;51680;49.806;18.774;2022-07-29T04:18:20;97582.22;;;20.07;73.48
41044;BME280;51680;49.806;18.774;2022-07-29T04:21:21;97582.97;;;20.52;72.40
41044;BME280;51680;49.806;18.774;2022-07-29T04:24:23;97578.31;;;20.97;71.09
41044;BME280;51680;49.806;18.774;2022-07-29T04:27:25;97573.84;;;21.39;69.68
41044;BME280;51680;49.806;18.774;2022-07-29T04:30:27;97578.31;;;21.72;68.51
41044;BME280;51680;49.806;18.774;2022-07-29T04:33:30;97569.41;;;22.05;67.46
41044;BME280;51680;49.806;18.774;2022-07-29T04:36:32;97565.13;;;22.36;66.55
41044;BME280;51680;49.806;18.774;2022-07-29T04:39:34;97559.94;;;22.74;65.66
41044;BME280;51680;49.806;18.774;2022-07-29T04:42:36;97556.53;;;23.04;64.86
41044;BME280;51680;49.806;18.774;2022-07-29T04:45:37;97559.84;;;23.22;64.18
41044;BME280;51680;49.806;18.774;2022-07-29T04:48:41;97556.84;;;23.25;63.94
41044;BME280;51680;49.806;18.774;2022-07-29T04:51:42;97561.16;;;23.34;63.86
41044;BME280;51680;49.806;18.774;2022-07-29T04:54:44;97557.63;;;23.34;63.88
41044;BME280;51680;49.806;18.774;2022-07-29T04:57:46;97553.63;;;23.38;64.08
41044;BME280;51680;49.806;18.774;2022-07-29T05:00:48;97562.00;;;23.27;64.29
41044;BME280;51680;49.806;18.774;2022-07-29T05:03:51;97571.72;;;22.96;65.05
41044;BME280;51680;49.806;18.774;2022-07-29T05:06:52;97569.75;;;22.82;65.52
41044;BME280;51680;49.806;18.774;2022-07-29T05:09:54;97569.53;;;22.99;65.08
41044;BME280;51680;49.806;18.774;2022-07-29T05:12:57;97568.22;;;23.19;64.44
41044;BME280;51680;49.806;18.774;2022-07-29T05:15:59;97577.84;;;23.04;64.93
41044;BME280;51680;49.806;18.774;2022-07-29T05:19:02;97569.63;;;23.38;64.21
41044;BME280;51680;49.806;18.774;2022-07-29T05:22:04;97570.22;;;23.56;64.17
41044;BME280;51680;49.806;18.774;2022-07-29T05:25:07;97571.38;;;23.92;62.83
41044;BME280;51680;49.806;18.774;2022-07-29T05:28:09;97572.63;;;24.04;62.70
41044;BME280;51680;49.806;18.774;2022-07-29T05:31:11;97575.44;;;24.10;62.36
41044;BME280;51680;49.806;18.774;2022-07-29T05:34:16;97574.97;;;24.29;62.27
41044;BME280;51680;49.806;18.774;2022-07-29T05:37:19;97569.00;;;24.42;61.65
41044;BME280;51680;49.806;18.774;2022-07-29T05:40:21;97568.66;;;24.82;60.67
41044;BME280;51680;49.806;18.774;2022-07-29T05:43:22;97561.59;;;25.18;59.91
41044;BME280;51680;49.806;18.774;2022-07-29T05:46:24;97563.72;;;25.22;59.18
41044;BME280;51680;49.806;18.774;2022-07-29T05:49:27;97563.25;;;25.04;59.86
41044;BME280;51680;49.806;18.774;2022-07-29T05:52:29;97559.31;;;25.44;58.87
41044;BME280;51680;49.806;18.774;2022-07-29T05:55:31;97557.22;;;25.75;58.13
41044;BME280;51680;49.806;18.774;2022-07-29T05:58:33;97564.47;;;25.95;57.95
41044;BME280;51680;49.806;18.774;2022-07-29T06:01:34;97565.56;;;25.65;58.40
41044;BME280;51680;49.806;18.774;2022-07-29T06:04:41;97567.50;;;25.42;58.60
41044;BME280;51680;49.806;18.774;2022-07-29T06:07:42;97578.16;;;24.84;60.27
41044;BME280;51680;49.806;18.774;2022-07-29T06:10:44;97580.16;;;24.23;61.56
41044;BME280;51680;49.806;18.774;2022-07-29T06:13:46;97584.84;;;24.21;61.86
41044;BME280;51680;49.806;18.774;2022-07-29T06:16:48;97572.38;;;24.58;61.16
41044;BME280;51680;49.806;18.774;2022-07-29T06:19:51;97558.38;;;25.22;60.37
41044;BME280;51680;49.806;18.774;2022-07-29T06:22:53;97570.91;;;25.51;59.19
41044;BME280;51680;49.806;18.774;2022-07-29T06:25:55;97573.41;;;25.88;58.47
41044;BME280;51680;49.806;18.774;2022-07-29T06:28:57;97568.66;;;26.19;58.07
41044;BME280;51680;49.806;18.774;2022-07-29T06:31:59;97573.75;;;26.56;56.85
41044;BME280;51680;49.806;18.774;2022-07-29T06:35:02;97572.81;;;26.91;55.74
41044;BME280;51680;49.806;18.774;2022-07-29T06:38:04;97577.34;;;27.18;55.49
41044;BME280;51680;49.806;18.774;2022-07-29T06:41:08;97581.94;;;27.58;54.73
41044;BME280;51680;49.806;18.774;2022-07-29T06:44:12;97579.03;;;27.53;54.48
41044;BME280;51680;49.806;18.774;2022-07-29T06:47:14;97585.25;;;27.26;54.70
41044;BME280;51680;49.806;18.774;2022-07-29T06:50:17;97579.84;;;27.19;55.38
41044;BME280;51680;49.806;18.774;2022-07-29T06:53:19;97583.13;;;26.94;56.12
41044;BME280;51680;49.806;18.774;2022-07-29T06:56:21;97585.97;;;26.86;56.89
41044;BME280;51680;49.806;18.774;2022-07-29T06:59:23;97588.06;;;26.90;56.35
41044;BME280;51680;49.806;18.774;2022-07-29T07:02:25;97586.38;;;26.83;56.52
41044;BME280;51680;49.806;18.774;2022-07-29T07:05:28;97591.34;;;26.65;56.91
41044;BME280;51680;49.806;18.774;2022-07-29T07:08:30;97593.97;;;26.58;57.40
41044;BME280;51680;49.806;18.774;2022-07-29T07:11:32;97592.16;;;26.86;56.60
41044;BME280;51680;49.806;18.774;2022-07-29T07:14:34;97588.06;;;27.18;56.13
41044;BME280;51680;49.806;18.774;2022-07-29T07:17:36;97587.56;;;27.35;55.50
41044;BME280;51680;49.806;18.774;2022-07-29T07:20:39;97580.78;;;27.39;55.23
41044;BME280;51680;49.806;18.774;2022-07-29T07:23:41;97586.03;;;27.54;54.95
41044;BME280;51680;49.806;18.774;2022-07-29T07:26:42;97585.00;;;27.55;55.38
41044;BME280;51680;49.806;18.774;2022-07-29T07:29:44;97587.53;;;27.63;55.58
41044;BME280;51680;49.806;18.774;2022-07-29T07:33:04;97583.97;;;27.56;55.57
41044;BME280;51680;49.806;18.774;2022-07-29T07:36:07;97580.19;;;27.44;55.36
41044;BME280;51680;49.806;18.774;2022-07-29T07:39:09;97587.56;;;27.29;55.60
41044;BME280;51680;49.806;18.774;2022-07-29T07:42:11;97590.91;;;27.10;56.02
41044;BME280;51680;49.806;18.774;2022-07-29T07:45:13;97591.88;;;27.02;56.10
41044;BME280;51680;49.806;18.774;2022-07-29T07:48:15;97598.72;;;27.11;56.15
41044;BME280;51680;49.806;18.774;2022-07-29T07:51:18;97596.13;;;27.18;56.16
41044;BME280;51680;49.806;18.774;2022-07-29T07:54:20;97593.16;;;27.34;56.20
41044;BME280;51680;49.806;18.774;2022-07-29T07:57:21;97585.56;;;27.44;55.80
41044;BME280;51680;49.806;18.774;2022-07-29T08:00:23;97597.72;;;27.40;55.55
41044;BME280;51680;49.806;18.774;2022-07-29T08:03:25;97588.34;;;27.63;55.30
41044;BME280;51680;49.806;18.774;2022-07-29T08:06:28;97585.38;;;27.86;54.68
41044;BME280;51680;49.806;18.774;2022-07-29T08:09:30;97594.59;;;28.37;54.26
41044;BME280;51680;49.806;18.774;2022-07-29T08:12:32;97590.13;;;28.96;52.26
41044;BME280;51680;49.806;18.774;2022-07-29T08:15:34;97605.41;;;29.41;51.66
41044;BME280;51680;49.806;18.774;2022-07-29T08:18:36;97601.91;;;29.98;50.35
41044;BME280;51680;49.806;18.774;2022-07-29T08:21:39;97595.88;;;30.46;48.98
41044;BME280;51680;49.806;18.774;2022-07-29T08:24:41;97590.31;;;30.72;48.53
41044;BME280;51680;49.806;18.774;2022-07-29T08:27:52;97588.53;;;31.09;47.41
41044;BME280;51680;49.806;18.774;2022-07-29T08:30:54;97593.78;;;31.28;46.96
41044;BME280;51680;49.806;18.774;2022-07-29T08:33:56;97586.75;;;31.03;47.51
41044;BME280;51680;49.806;18.774;2022-07-29T08:37:01;97582.94;;;31.10;47.42
41044;BME280;51680;49.806;18.774;2022-07-29T08:40:03;97589.53;;;30.90;47.71
41044;BME280;51680;49.806;18.774;2022-07-29T08:43:07;97589.78;;;30.57;48.15
41044;BME280;51680;49.806;18.774;2022-07-29T08:46:10;97591.75;;;30.44;48.22
41044;BME280;51680;49.806;18.774;2022-07-29T08:49:12;97596.47;;;30.48;48.96
41044;BME280;51680;49.806;18.774;2022-07-29T08:52:15;97584.56;;;30.62;48.46
41044;BME280;51680;49.806;18.774;2022-07-29T08:55:18;97585.72;;;30.79;48.09
41044;BME280;51680;49.806;18.774;2022-07-29T08:58:20;97578.34;;;30.62;48.23
41044;BME280;51680;49.806;18.774;2022-07-29T09:01:24;97582.81;;;30.43;49.26
41044;BME280;51680;49.806;18.774;2022-07-29T09:04:29;97581.00;;;30.37;48.71
41044;BME280;51680;49.806;18.774;2022-07-29T09:07:33;97589.25;;;30.42;48.82
41044;BME280;51680;49.806;18.774;2022-07-29T09:10:35;97585.38;;;30.69;48.46
41044;BME280;51680;49.806;18.774;2022-07-29T09:13:38;97586.59;;;30.36;48.47
41044;BME280;51680;49.806;18.774;2022-07-29T09:16:51;97588.72;;;30.58;47.52
41044;BME280;51680;49.806;18.774;2022-07-29T09:19:54;97582.72;;;30.87;48.23
41044;BME280;51680;49.806;18.774;2022-07-29T09:23:10;97582.03;;;31.16;47.23
41044;BME280;51680;49.806;18.774;2022-07-29T09:26:12;97566.81;;;31.46;47.00
41044;BME280;51680;49.806;18.774;2022-07-29T09:29:16;97569.22;;;31.90;46.37
41044;BME280;51680;49.806;18.774;2022-07-29T09:32:18;97568.38;;;31.36;45.61
41044;BME280;51680;49.806;18.774;2022-07-29T09:35:21;97567.72;;;31.40;46.95
41044;BME280;51680;49.806;18.774;2022-07-29T09:38:24;97566.81;;;31.46;46.40
41044;BME280;51680;49.806;18.774;2022-07-29T09:41:26;97558.19;;;31.74;46.54
41044;BME280;51680;49.806;18.774;2022-07-29T09:44:41;97560.16;;;32.14;46.22
41044;BME280;51680;49.806;18.774;2022-07-29T09:47:45;97560.69;;;32.52;45.20
41044;BME280;51680;49.806;18.774;2022-07-29T09:50:49;97556.84;;;32.71;45.27
41044;BME280;51680;49.806;18.774;2022-07-29T09:53:54;97559.59;;;32.53;45.04
41044;BME280;51680;49.806;18.774;2022-07-29T09:56:56;97552.63;;;32.34;45.65
41044;BME280;51680;49.806;18.774;2022-07-29T09:59:59;97540.06;;;32.40;45.21
41044;BME280;51680;49.806;18.774;2022-07-29T10:03:01;97543.84;;;32.50;44.52
41044;BME280;51680;49.806;18.774;2022-07-29T10:06:07;97543.88;;;32.62;44.38
41044;BME280;51680;49.806;18.774;2022-07-29T10:09:11;97533.34;;;32.83;44.37
41044;BME280;51680;49.806;18.774;2022-07-29T10:12:32;97522.41;;;33.01;44.25
41044;BME280;51680;49.806;18.774;2022-07-29T10:15:36;97525.00;;;33.08;44.07
41044;BME280;51680;49.806;18.774;2022-07-29T10:18:41;97520.41;;;32.85;44.13
41044;BME280;51680;49.806;18.774;2022-07-29T10:21:43;97518.91;;;32.48;44.05
41044;BME280;51680;49.806;18.774;2022-07-29T10:24:47;97525.88;;;32.26;44.85
41044;BME280;51680;49.806;18.774;2022-07-29T10:27:50;97522.31;;;32.32;44.83
41044;BME280;51680;49.806;18.774;2022-07-29T10:30:59;97520.09;;;32.52;44.02
41044;BME280;51680;49.806;18.774;2022-07-29T10:34:07;97524.56;;;32.47;45.19
41044;BME280;51680;49.806;18.774;2022-07-29T10:37:21;97524.53;;;32.35;44.23
41044;BME280;51680;49.806;18.774;2022-07-29T10:40:33;97522.22;;;32.21;43.71
41044;BME280;51680;49.806;18.774;2022-07-29T10:43:59;97512.56;;;32.31;44.30
41044;BME280;51680;49.806;18.774;2022-07-29T10:47:02;97519.31;;;32.22;45.03
41044;BME280;51680;49.806;18.774;2022-07-29T10:50:05;97522.63;;;31.59;45.36
41044;BME280;51680;49.806;18.774;2022-07-29T10:53:08;97519.53;;;31.73;45.73
41044;BME280;51680;49.806;18.774;2022-07-29T10:56:23;97513.81;;;31.99;42.42
41044;BME280;51680;49.806;18.774;2022-07-29T10:59:26;97522.16;;;31.98;44.53
41044;BME280;51680;49.806;18.774;2022-07-29T11:02:41;97515.47;;;32.00;43.86
41044;BME280;51680;49.806;18.774;2022-07-29T11:05:54;97507.59;;;32.28;43.98
41044;BME280;51680;49.806;18.774;2022-07-29T11:09:15;97513.00;;;32.28;43.02
41044;BME280;51680;49.806;18.774;2022-07-29T11:12:47;97509.53;;;32.10;42.83
41044;BME280;51680;49.806;18.774;2022-07-29T11:15:52;97514.53;;;32.06;44.32
41044;BME280;51680;49.806;18.774;2022-07-29T11:19:22;97508.22;;;32.12;43.88
41044;BME280;51680;49.806;18.774;2022-07-29T11:22:32;97515.53;;;32.23;43.96
41044;BME280;51680;49.806;18.774;2022-07-29T11:25:35;97513.72;;;32.35;44.21
41044;BME280;51680;49.806;18.774;2022-07-29T11:28:48;97511.72;;;32.31;42.90
41044;BME280;51680;49.806;18.774;2022-07-29T11:31:52;97504.81;;;32.17;43.72
41044;BME280;51680;49.806;18.774;2022-07-29T11:35:14;97505.97;;;32.27;42.88
41044;BME280;51680;49.806;18.774;2022-07-29T11:38:26;97508.88;;;31.96;42.50
41044;BME280;51680;49.806;18.774;2022-07-29T11:41:28;97505.09;;;31.97;44.34
41044;BME280;51680;49.806;18.774;2022-07-29T11:44:55;97500.56;;;32.27;41.60
41044;BME280;51680;49.806;18.774;2022-07-29T11:47:58;97502.34;;;32.45;42.82
41044;BME280;51680;49.806;18.774;2022-07-29T11:51:09;97497.31;;;32.71;42.30
41044;BME280;51680;49.806;18.774;2022-07-29T11:54:13;97500.59;;;32.73;42.65
41044;BME280;51680;49.806;18.774;2022-07-29T11:57:18;97489.88;;;32.44;42.65
41044;BME280;51680;49.806;18.774;2022-07-29T12:00:24;97488.00;;;32.03;42.68
41044;BME280;51680;49.806;18.774;2022-07-29T12:03:27;97500.03;;;31.71;42.88
41044;BME280;51680;49.806;18.774;2022-07-29T12:06:29;97484.91;;;31.34;43.14
41044;BME280;51680;49.806;18.774;2022-07-29T12:09:31;97484.84;;;31.41;44.24
41044;BME280;51680;49.806;18.774;2022-07-29T12:12:33;97484.84;;;31.59;44.10
41044;BME280;51680;49.806;18.774;2022-07-29T12:15:36;97481.00;;;31.66;43.37
41044;BME280;51680;49.806;18.774;2022-07-29T12:18:38;97473.25;;;31.70;43.51
41044;BME280;51680;49.806;18.774;2022-07-29T12:21:44;97475.75;;;31.53;42.39
41044;BME280;51680;49.806;18.774;2022-07-29T12:24:46;97470.81;;;31.50;43.69
41044;BME280;51680;49.806;18.774;2022-07-29T12:27:57;97479.16;;;31.49;42.91
41044;BME280;51680;49.806;18.774;2022-07-29T12:31:01;97475.63;;;31.48;44.02
41044;BME280;51680;49.806;18.774;2022-07-29T12:34:02;97478.16;;;31.61;44.92
41044;BME280;51680;49.806;18.774;2022-07-29T12:37:04;97481.16;;;31.53;44.22
41044;BME280;51680;49.806;18.774;2022-07-29T12:40:11;97477.66;;;31.35;43.61
41044;BME280;51680;49.806;18.774;2022-07-29T12:43:15;97474.44;;;31.26;44.57
41044;BME280;51680;49.806;18.774;2022-07-29T12:46:19;97477.81;;;31.22;44.50
41044;BME280;51680;49.806;18.774;2022-07-29T12:49:21;97477.09;;;31.08;44.75
41044;BME280;51680;49.806;18.774;2022-07-29T12:52:24;97463.91;;;31.00;44.34
41044;BME280;51680;49.806;18.774;2022-07-29T12:55:38;97458.06;;;31.03;43.85
41044;BME280;51680;49.806;18.774;2022-07-29T12:58:40;97459.56;;;30.99;45.92
41044;BME280;51680;49.806;18.774;2022-07-29T13:01:44;97457.47;;;31.19;43.76
41044;BME280;51680;49.806;18.774;2022-07-29T13:04:55;97442.72;;;31.22;42.81
41044;BME280;51680;49.806;18.774;2022-07-29T13:08:10;97452.75;;;31.15;42.28
41044;BME280;51680;49.806;18.774;2022-07-29T13:11:27;97443.38;;;30.99;43.01
41044;BME280;51680;49.806;18.774;2022-07-29T13:14:31;97450.88;;;30.79;43.42
41044;BME280;51680;49.806;18.774;2022-07-29T13:17:34;97459.19;;;30.29;46.94
41044;BME280;51680;49.806;18.774;2022-07-29T13:20:41;97456.28;;;30.30;45.96
41044;BME280;51680;49.806;18.774;2022-07-29T13:23:42;97439.22;;;30.05;46.47
41044;BME280;51680;49.806;18.774;2022-07-29T13:26:44;97439.56;;;30.15;45.98
41044;BME280;51680;49.806;18.774;2022-07-29T13:29:46;97436.34;;;30.31;46.82
41044;BME280;51680;49.806;18.774;2022-07-29T13:32:51;97433.25;;;30.52;45.96
41044;BME280;51680;49.806;18.774;2022-07-29T13:35:53;97423.63;;;30.63;45.08
41044;BME280;51680;49.806;18.774;2022-07-29T13:38:55;97414.53;;;30.57;44.47
41044;BME280;51680;49.806;18.774;2022-07-29T13:41:57;97407.75;;;30.30;44.96
41044;BME280;51680;49.806;18.774;2022-07-29T13:44:59;97404.66;;;30.02;45.07
41044;BME280;51680;49.806;18.774;2022-07-29T13:48:03;97409.72;;;29.92;45.02
41044;BME280;51680;49.806;18.774;2022-07-29T13:51:05;97404.75;;;29.89;45.57
41044;BME280;51680;49.806;18.774;2022-07-29T13:54:07;97409.41;;;30.00;45.95
41044;BME280;51680;49.806;18.774;2022-07-29T13:57:09;97401.72;;;30.04;45.90
41044;BME280;51680;49.806;18.774;2022-07-29T14:00:12;97390.50;;;30.13;45.74
41044;BME280;51680;49.806;18.774;2022-07-29T14:03:16;97397.09;;;30.17;45.51
41044;BME280;51680;49.806;18.774;2022-07-29T14:06:18;97398.00;;;30.29;45.33
41044;BME280;51680;49.806;18.774;2022-07-29T14:09:20;97402.38;;;30.30;44.99
41044;BME280;51680;49.806;18.774;2022-07-29T14:12:22;97403.28;;;30.18;45.17
41044;BME280;51680;49.806;18.774;2022-07-29T14:15:24;97399.31;;;30.20;45.06
41044;BME280;51680;49.806;18.774;2022-07-29T14:18:27;97410.41;;;30.12;45.23
41044;BME280;51680;49.806;18.774;2022-07-29T14:21:29;97411.56;;;29.92;45.13
41044;BME280;51680;49.806;18.774;2022-07-29T14:24:31;97414.84;;;29.94;45.40
41044;BME280;51680;49.806;18.774;2022-07-29T14:27:33;97423.44;;;29.84;45.48
41044;BME280;51680;49.806;18.774;2022-07-29T14:30:34;97416.78;;;29.87;45.10
41044;BME280;51680;49.806;18.774;2022-07-29T14:33:56;97406.13;;;29.98;45.37
41044;BME280;51680;49.806;18.774;2022-07-29T14:36:58;97407.50;;;30.07;45.00
41044;BME280;51680;49.806;18.774;2022-07-29T14:39:59;97402.91;;;30.14;43.72
41044;BME280;51680;49.806;18.774;2022-07-29T14:43:03;97398.38;;;30.15;44.47
41044;BME280;51680;49.806;18.774;2022-07-29T14:46:05;97400.53;;;30.24;44.14
41044;BME280;51680;49.806;18.774;2022-07-29T14:49:09;97410.41;;;30.12;43.58
41044;BME280;51680;49.806;18.774;2022-07-29T14:52:11;97418.38;;;29.94;44.30
41044;BME280;51680;49.806;18.774;2022-07-29T14:55:13;97426.66;;;29.93;44.70
41044;BME280;51680;49.806;18.774;2022-07-29T14:58:15;97432.81;;;29.75;44.79
41044;BME280;51680;49.806;18.774;2022-07-29T15:01:17;97439.94;;;29.63;45.17
41044;BME280;51680;49.806;18.774;2022-07-29T15:04:20;97447.19;;;29.49;44.92
41044;BME280;51680;49.806;18.774;2022-07-29T15:07:22;97449.56;;;29.33;44.99
41044;BME280;51680;49.806;18.774;2022-07-29T15:10:24;97451.50;;;29.13;45.24
41044;BME280;51680;49.806;18.774;2022-07-29T15:13:26;97459.38;;;28.95;45.53
41044;BME280;51680;49.806;18.774;2022-07-29T15:16:28;97467.53;;;28.49;46.75
41044;BME280;51680;49.806;18.774;2022-07-29T15:19:31;97490.69;;;27.58;48.17
41044;BME280;51680;49.806;18.774;2022-07-29T15:22:33;97477.19;;;25.94;47.45
41044;BME280;51680;49.806;18.774;2022-07-29T15:25:35;97499.19;;;25.11;48.67
41044;BME280;51680;49.806;18.774;2022-07-29T15:28:37;97495.91;;;24.57;50.15
41044;BME280;51680;49.806;18.774;2022-07-29T15:31:39;97488.94;;;23.52;55.66
41044;BME280;51680;49.806;18.774;2022-07-29T15:34:42;97483.75;;;23.20;56.94
41044;BME280;51680;49.806;18.774;2022-07-29T15:37:44;97472.22;;;22.89;59.31
41044;BME280;51680;49.806;18.774;2022-07-29T15:40:46;97460.59;;;22.82;60.48
41044;BME280;51680;49.806;18.774;2022-07-29T15:43:47;97468.47;;;22.67;65.84
41044;BME280;51680;49.806;18.774;2022-07-29T15:46:51;97452.66;;;22.66;65.82
41044;BME280;51680;49.806;18.774;2022-07-29T15:50:07;97480.81;;;22.52;68.18
41044;BME280;51680;49.806;18.774;2022-07-29T15:53:15;97462.69;;;22.48;66.89
41044;BME280;51680;49.806;18.774;2022-07-29T15:56:16;97463.00;;;22.45;67.99
41044;BME280;51680;49.806;18.774;2022-07-29T15:59:18;97474.81;;;22.34;70.53
41044;BME280;51680;49.806;18.774;2022-07-29T16:02:20;97467.69;;;22.11;74.10
41044;BME280;51680;49.806;18.774;2022-07-29T16:05:23;97467.34;;;22.06;75.18